sensor_id;sensor_type;location;lat;lon;timestamp;temperature;humidity
25985;DHT22;40000;53.848;10.658;2022-07-03T00:04:55;16.80;99.90
25985;DHT22;40000;53.848;10.658;2022-07-03T00:09:56;16.80;99.90
25985;DHT22;40000;53.848;10.658;2022-07-03T00:15:00;16.80;99.90
25985;DHT22;40000;53.848;10.658;2022-07-03T00:20:01;16.70;99.90
25985;DHT22;40000;53.848;10.658;2022-07-03T00:25:05;16.70;99.90
25985;DHT22;40000;53.848;10.658;2022-07-03T00:30:07;16.70;99.90
25985;DHT22;40000;53.848;10.658;2022-07-03T00:35:09;16.70;99.90
25985;DHT22;40000;53.848;10.658;2022-07-03T00:40:10;16.70;99.90
25985;DHT22;40000;53.848;10.658;2022-07-03T00:45:12;16.70;99.90
25985;DHT22;40000;53.848;10.658;2022-07-03T00:50:24;16.60;99.90
25985;DHT22;40000;53.848;10.658;2022-07-03T00:55:27;16.60;99.90
25985;DHT22;40000;53.848;10.658;2022-07-03T01:00:28;16.50;99.90
25985;DHT22;40000;53.848;10.658;2022-07-03T01:05:39;16.40;99.90
25985;DHT22;40000;53.848;10.658;2022-07-03T01:27:56;16.50;99.90
25985;DHT22;40000;53.848;10.658;2022-07-03T01:33:08;16.50;99.90
25985;DHT22;40000;53.848;10.658;2022-07-03T01:38:14;16.50;99.90
25985;DHT22;40000;53.848;10.658;2022-07-03T01:43:15;16.40;99.90
25985;DHT22;40000;53.848;10.658;2022-07-03T01:48:16;16.40;99.90
25985;DHT22;40000;53.848;10.658;2022-07-03T01:53:20;16.40;99.90
25985;DHT22;40000;53.848;10.658;2022-07-03T01:58:24;16.50;99.90
25985;DHT22;40000;53.848;10.658;2022-07-03T02:03:30;16.50;99.90
25985;DHT22;40000;53.848;10.658;2022-07-03T02:19:18;16.40;99.90
25985;DHT22;40000;53.848;10.658;2022-07-03T02:29:43;16.40;99.90
25985;DHT22;40000;53.848;10.658;2022-07-03T02:34:55;16.30;99.90
25985;DHT22;40000;53.848;10.658;2022-07-03T02:40:10;16.40;99.90
25985;DHT22;40000;53.848;10.658;2022-07-03T02:45:17;16.30;99.90
25985;DHT22;40000;53.848;10.658;2022-07-03T02:50:25;16.40;99.90
25985;DHT22;40000;53.848;10.658;2022-07-03T03:00:46;16.40;99.90
25985;DHT22;40000;53.848;10.658;2022-07-03T03:06:14;16.40;99.90
25985;DHT22;40000;53.848;10.658;2022-07-03T03:16:50;16.40;99.90
25985;DHT22;40000;53.848;10.658;2022-07-03T03:27:32;16.60;99.90
25985;DHT22;40000;53.848;10.658;2022-07-03T03:32:34;16.80;99.90
25985;DHT22;40000;53.848;10.658;2022-07-03T03:37:36;16.80;99.90
25985;DHT22;40000;53.848;10.658;2022-07-03T03:42:37;16.90;99.90
25985;DHT22;40000;53.848;10.658;2022-07-03T03:47:39;17.10;99.90
25985;DHT22;40000;53.848;10.658;2022-07-03T03:52:40;17.20;99.90
25985;DHT22;40000;53.848;10.658;2022-07-03T03:57:42;17.30;99.90
25985;DHT22;40000;53.848;10.658;2022-07-03T04:02:43;17.50;99.90
25985;DHT22;40000;53.848;10.658;2022-07-03T04:07:45;17.80;99.90
25985;DHT22;40000;53.848;10.658;2022-07-03T04:12:46;18.00;99.90
25985;DHT22;40000;53.848;10.658;2022-07-03T04:17:51;18.20;99.90
25985;DHT22;40000;53.848;10.658;2022-07-03T04:22:52;18.20;99.90
25985;DHT22;40000;53.848;10.658;2022-07-03T04:27:53;18.30;99.90
25985;DHT22;40000;53.848;10.658;2022-07-03T04:32:55;18.40;99.90
25985;DHT22;40000;53.848;10.658;2022-07-03T04:37:56;18.50;99.90
25985;DHT22;40000;53.848;10.658;2022-07-03T04:42:57;18.80;99.90
25985;DHT22;40000;53.848;10.658;2022-07-03T04:47:59;19.10;99.90
25985;DHT22;40000;53.848;10.658;2022-07-03T04:53:03;19.30;99.90
25985;DHT22;40000;53.848;10.658;2022-07-03T04:58:04;19.60;99.90
25985;DHT22;40000;53.848;10.658;2022-07-03T05:03:05;19.70;99.90
25985;DHT22;40000;53.848;10.658;2022-07-03T05:08:07;19.90;99.90
25985;DHT22;40000;53.848;10.658;2022-07-03T05:13:08;20.00;99.90
25985;DHT22;40000;53.848;10.658;2022-07-03T05:18:09;20.10;99.90
25985;DHT22;40000;53.848;10.658;2022-07-03T05:23:09;20.20;99.90
25985;DHT22;40000;53.848;10.658;2022-07-03T05:28:10;20.40;99.90
25985;DHT22;40000;53.848;10.658;2022-07-03T05:33:11;20.70;99.90
25985;DHT22;40000;53.848;10.658;2022-07-03T05:38:11;20.80;99.90
25985;DHT22;40000;53.848;10.658;2022-07-03T05:43:13;21.10;99.90
25985;DHT22;40000;53.848;10.658;2022-07-03T05:48:14;21.50;99.90
25985;DHT22;40000;53.848;10.658;2022-07-03T05:53:16;22.00;99.90
25985;DHT22;40000;53.848;10.658;2022-07-03T05:58:17;22.40;99.90
25985;DHT22;40000;53.848;10.658;2022-07-03T06:03:17;22.50;99.90
25985;DHT22;40000;53.848;10.658;2022-07-03T06:08:18;22.50;99.90
25985;DHT22;40000;53.848;10.658;2022-07-03T06:13:19;22.70;99.90
25985;DHT22;40000;53.848;10.658;2022-07-03T06:18:20;23.00;99.90
25985;DHT22;40000;53.848;10.658;2022-07-03T06:23:20;23.00;99.90
25985;DHT22;40000;53.848;10.658;2022-07-03T06:28:21;23.20;99.90
25985;DHT22;40000;53.848;10.658;2022-07-03T06:33:23;22.80;99.90
25985;DHT22;40000;53.848;10.658;2022-07-03T06:38:24;23.20;99.90
25985;DHT22;40000;53.848;10.658;2022-07-03T06:43:25;23.50;99.90
25985;DHT22;40000;53.848;10.658;2022-07-03T06:48:25;24.00;99.90
25985;DHT22;40000;53.848;10.658;2022-07-03T06:53:26;24.40;99.90
25985;DHT22;40000;53.848;10.658;2022-07-03T06:58:27;24.50;99.90
25985;DHT22;40000;53.848;10.658;2022-07-03T07:03:28;24.70;99.90
25985;DHT22;40000;53.848;10.658;2022-07-03T07:08:29;24.80;99.90
25985;DHT22;40000;53.848;10.658;2022-07-03T07:13:29;24.80;99.90
25985;DHT22;40000;53.848;10.658;2022-07-03T07:18:30;24.80;99.90
25985;DHT22;40000;53.848;10.658;2022-07-03T07:23:31;24.70;99.90
25985;DHT22;40000;53.848;10.658;2022-07-03T07:28:32;24.70;99.90
25985;DHT22;40000;53.848;10.658;2022-07-03T07:33:33;24.80;99.90
25985;DHT22;40000;53.848;10.658;2022-07-03T07:38:34;24.90;99.90
25985;DHT22;40000;53.848;10.658;2022-07-03T07:43:35;25.00;99.90
25985;DHT22;40000;53.848;10.658;2022-07-03T07:48:36;25.20;99.90
25985;DHT22;40000;53.848;10.658;2022-07-03T07:53:39;25.20;99.90
25985;DHT22;40000;53.848;10.658;2022-07-03T07:58:40;25.20;99.90
25985;DHT22;40000;53.848;10.658;2022-07-03T08:03:41;25.40;99.90
25985;DHT22;40000;53.848;10.658;2022-07-03T08:09:00;25.60;99.90
25985;DHT22;40000;53.848;10.658;2022-07-03T08:14:01;25.60;99.90
25985;DHT22;40000;53.848;10.658;2022-07-03T08:19:05;25.60;99.90
25985;DHT22;40000;53.848;10.658;2022-07-03T08:24:06;25.80;99.90
25985;DHT22;40000;53.848;10.658;2022-07-03T08:29:07;26.00;99.90
25985;DHT22;40000;53.848;10.658;2022-07-03T08:34:07;26.10;99.90
25985;DHT22;40000;53.848;10.658;2022-07-03T08:39:12;26.10;99.90
25985;DHT22;40000;53.848;10.658;2022-07-03T08:44:13;26.40;99.90
25985;DHT22;40000;53.848;10.658;2022-07-03T08:49:14;26.50;99.90
25985;DHT22;40000;53.848;10.658;2022-07-03T08:54:17;26.70;99.90
25985;DHT22;40000;53.848;10.658;2022-07-03T08:59:21;26.90;99.90
25985;DHT22;40000;53.848;10.658;2022-07-03T09:04:22;27.20;99.90
25985;DHT22;40000;53.848;10.658;2022-07-03T09:09:23;27.60;99.90
25985;DHT22;40000;53.848;10.658;2022-07-03T09:14:24;27.80;99.90
25985;DHT22;40000;53.848;10.658;2022-07-03T09:19:55;28.30;99.90
25985;DHT22;40000;53.848;10.658;2022-07-03T09:25:12;28.80;99.90
25985;DHT22;40000;53.848;10.658;2022-07-03T09:30:14;28.60;99.90
25985;DHT22;40000;53.848;10.658;2022-07-03T09:35:22;28.50;99.80
25985;DHT22;40000;53.848;10.658;2022-07-03T09:40:27;28.60;97.40
25985;DHT22;40000;53.848;10.658;2022-07-03T09:45:58;28.50;99.30
25985;DHT22;40000;53.848;10.658;2022-07-03T09:51:10;29.00;99.30
25985;DHT22;40000;53.848;10.658;2022-07-03T09:56:12;29.00;96.70
25985;DHT22;40000;53.848;10.658;2022-07-03T10:01:20;29.70;97.30
25985;DHT22;40000;53.848;10.658;2022-07-03T10:06:22;30.10;95.40
25985;DHT22;40000;53.848;10.658;2022-07-03T10:11:23;30.10;94.50
25985;DHT22;40000;53.848;10.658;2022-07-03T10:16:24;30.10;94.80
25985;DHT22;40000;53.848;10.658;2022-07-03T10:21:26;30.10;96.40
25985;DHT22;40000;53.848;10.658;2022-07-03T10:26:27;29.90;93.80
25985;DHT22;40000;53.848;10.658;2022-07-03T10:31:28;29.90;94.30
25985;DHT22;40000;53.848;10.658;2022-07-03T10:36:29;29.80;93.40
25985;DHT22;40000;53.848;10.658;2022-07-03T10:41:35;29.60;89.60
25985;DHT22;40000;53.848;10.658;2022-07-03T10:46:57;29.90;91.10
25985;DHT22;40000;53.848;10.658;2022-07-03T10:52:00;29.90;90.40
25985;DHT22;40000;53.848;10.658;2022-07-03T10:57:08;29.90;85.60
25985;DHT22;40000;53.848;10.658;2022-07-03T11:02:36;29.30;90.20
25985;DHT22;40000;53.848;10.658;2022-07-03T11:08:02;29.60;92.20
25985;DHT22;40000;53.848;10.658;2022-07-03T11:18:17;29.70;88.10
25985;DHT22;40000;53.848;10.658;2022-07-03T11:23:30;29.50;90.20
25985;DHT22;40000;53.848;10.658;2022-07-03T11:34:00;29.90;87.80
25985;DHT22;40000;53.848;10.658;2022-07-03T11:39:05;29.70;85.00
25985;DHT22;40000;53.848;10.658;2022-07-03T11:44:09;29.40;91.40
25985;DHT22;40000;53.848;10.658;2022-07-03T11:49:18;29.70;88.70
25985;DHT22;40000;53.848;10.658;2022-07-03T11:54:23;29.50;88.60
25985;DHT22;40000;53.848;10.658;2022-07-03T11:59:24;29.30;91.30
25985;DHT22;40000;53.848;10.658;2022-07-03T12:04:24;29.20;90.70
25985;DHT22;40000;53.848;10.658;2022-07-03T12:09:29;29.00;89.10
25985;DHT22;40000;53.848;10.658;2022-07-03T12:19:59;28.40;89.20
25985;DHT22;40000;53.848;10.658;2022-07-03T12:25:08;29.20;89.60
25985;DHT22;40000;53.848;10.658;2022-07-03T12:30:20;29.30;86.30
25985;DHT22;40000;53.848;10.658;2022-07-03T12:35:28;28.50;86.80
25985;DHT22;40000;53.848;10.658;2022-07-03T12:40:29;28.10;87.70
25985;DHT22;40000;53.848;10.658;2022-07-03T12:45:29;28.20;88.00
25985;DHT22;40000;53.848;10.658;2022-07-03T12:50:46;28.20;88.00
25985;DHT22;40000;53.848;10.658;2022-07-03T12:55:47;28.30;90.10
25985;DHT22;40000;53.848;10.658;2022-07-03T13:00:48;28.60;87.40
25985;DHT22;40000;53.848;10.658;2022-07-03T13:05:50;28.70;81.70
25985;DHT22;40000;53.848;10.658;2022-07-03T13:10:58;28.70;82.30
25985;DHT22;40000;53.848;10.658;2022-07-03T13:15:59;29.00;83.20
25985;DHT22;40000;53.848;10.658;2022-07-03T13:21:00;29.20;73.40
25985;DHT22;40000;53.848;10.658;2022-07-03T13:26:01;29.00;80.30
25985;DHT22;40000;53.848;10.658;2022-07-03T13:31:01;29.30;80.40
25985;DHT22;40000;53.848;10.658;2022-07-03T13:36:03;29.60;76.30
25985;DHT22;40000;53.848;10.658;2022-07-03T13:41:05;29.50;75.50
25985;DHT22;40000;53.848;10.658;2022-07-03T13:46:08;29.40;75.20
25985;DHT22;40000;53.848;10.658;2022-07-03T13:51:09;29.90;80.70
25985;DHT22;40000;53.848;10.658;2022-07-03T13:56:11;30.10;80.60
25985;DHT22;40000;53.848;10.658;2022-07-03T14:01:13;29.70;75.30
25985;DHT22;40000;53.848;10.658;2022-07-03T14:06:14;29.50;80.00
25985;DHT22;40000;53.848;10.658;2022-07-03T14:11:15;29.40;80.20
25985;DHT22;40000;53.848;10.658;2022-07-03T14:16:16;29.50;80.90
25985;DHT22;40000;53.848;10.658;2022-07-03T14:21:16;30.10;80.50
25985;DHT22;40000;53.848;10.658;2022-07-03T14:26:17;30.00;75.90
25985;DHT22;40000;53.848;10.658;2022-07-03T14:31:41;29.80;79.00
25985;DHT22;40000;53.848;10.658;2022-07-03T14:37:00;29.70;75.70
25985;DHT22;40000;53.848;10.658;2022-07-03T14:42:00;29.70;77.20
25985;DHT22;40000;53.848;10.658;2022-07-03T14:47:03;29.40;78.50
25985;DHT22;40000;53.848;10.658;2022-07-03T14:52:05;29.40;78.90
25985;DHT22;40000;53.848;10.658;2022-07-03T15:03:27;29.70;78.80
25985;DHT22;40000;53.848;10.658;2022-07-03T15:13:31;30.00;73.60
25985;DHT22;40000;53.848;10.658;2022-07-03T15:18:33;30.20;74.90
25985;DHT22;40000;53.848;10.658;2022-07-03T15:23:34;30.50;72.50
25985;DHT22;40000;53.848;10.658;2022-07-03T15:28:35;30.20;72.40
25985;DHT22;40000;53.848;10.658;2022-07-03T15:33:36;30.10;78.20
25985;DHT22;40000;53.848;10.658;2022-07-03T15:38:46;30.70;71.30
25985;DHT22;40000;53.848;10.658;2022-07-03T15:44:20;31.50;78.00
25985;DHT22;40000;53.848;10.658;2022-07-03T15:49:27;32.40;69.50
25985;DHT22;40000;53.848;10.658;2022-07-03T16:00:08;36.30;61.40
25985;DHT22;40000;53.848;10.658;2022-07-03T16:05:11;38.40;55.00
25985;DHT22;40000;53.848;10.658;2022-07-03T16:10:18;38.00;49.40
25985;DHT22;40000;53.848;10.658;2022-07-03T16:15:21;37.80;48.10
25985;DHT22;40000;53.848;10.658;2022-07-03T17:16:01;35.20;51.60
25985;DHT22;40000;53.848;10.658;2022-07-03T17:21:05;36.50;50.60
25985;DHT22;40000;53.848;10.658;2022-07-03T17:26:07;35.10;52.20
25985;DHT22;40000;53.848;10.658;2022-07-03T17:31:14;34.10;53.90
25985;DHT22;40000;53.848;10.658;2022-07-03T17:36:20;32.10;57.10
25985;DHT22;40000;53.848;10.658;2022-07-03T17:41:28;31.80;59.30
25985;DHT22;40000;53.848;10.658;2022-07-03T17:46:31;32.50;57.20
25985;DHT22;40000;53.848;10.658;2022-07-03T17:51:41;31.70;57.60
25985;DHT22;40000;53.848;10.658;2022-07-03T17:56:43;30.10;61.10
25985;DHT22;40000;53.848;10.658;2022-07-03T18:01:44;29.20;64.40
25985;DHT22;40000;53.848;10.658;2022-07-03T18:06:45;29.20;65.60
25985;DHT22;40000;53.848;10.658;2022-07-03T18:16:52;27.50;73.50
25985;DHT22;40000;53.848;10.658;2022-07-03T18:22:01;27.00;76.50
